createdAt,value
2023-01-13T00:03:31.837Z,9.55
2023-01-13T00:09:23.967Z,9.57
2023-01-13T00:15:16.999Z,9.59
2023-01-13T00:21:17.128Z,9.56
2023-01-13T00:27:09.943Z,9.58
2023-01-13T00:33:02.756Z,9.61
2023-01-13T00:38:55.147Z,9.66
2023-01-13T00:44:48.085Z,9.74
2023-01-13T00:50:41.312Z,9.77
2023-01-13T00:56:40.202Z,9.68
2023-01-13T01:02:32.928Z,9.63
2023-01-13T01:08:24.896Z,9.62
2023-01-13T01:14:17.007Z,9.66
2023-01-13T01:20:09.698Z,9.68
2023-01-13T01:26:12.036Z,9.70
2023-01-13T01:32:05.139Z,9.68
2023-01-13T01:37:58.226Z,9.70
2023-01-13T01:44:00.021Z,9.65
2023-01-13T01:49:53.572Z,9.62
2023-01-13T01:55:46.292Z,9.63
2023-01-13T02:01:41.959Z,9.48
2023-01-13T02:07:37.175Z,9.40
2023-01-13T02:13:31.285Z,9.40
2023-01-13T02:20:02.548Z,9.41
2023-01-13T02:25:57.795Z,9.52
2023-01-13T02:31:52.433Z,9.73
2023-01-13T02:37:45.480Z,9.82
2023-01-13T02:43:58.877Z,9.93
2023-01-13T02:49:57.829Z,10.05
2023-01-13T02:55:54.105Z,10.10
2023-01-13T03:01:48.073Z,10.15
2023-01-13T03:08:15.912Z,10.12
2023-01-13T03:14:27.403Z,10.14
2023-01-13T03:20:27.850Z,10.02
2023-01-13T03:26:35.081Z,10.03
2023-01-13T03:32:42.929Z,9.95
2023-01-13T03:38:58.813Z,9.85
2023-01-13T03:45:18.100Z,9.82
2023-01-13T03:51:16.523Z,9.72
2023-01-13T03:57:14.180Z,9.77
2023-01-13T04:03:23.579Z,9.76
2023-01-13T04:09:39.518Z,9.74
2023-01-13T04:15:39.517Z,9.68
2023-01-13T04:21:34.543Z,9.71
2023-01-13T04:27:28.147Z,9.76
2023-01-13T04:33:21.305Z,9.81
2023-01-13T04:39:13.613Z,9.85
2023-01-13T04:45:07.428Z,9.91
2023-01-13T04:50:59.193Z,9.92
2023-01-13T04:56:51.488Z,9.97
2023-01-13T05:02:43.808Z,9.93
2023-01-13T05:08:36.636Z,9.82
2023-01-13T05:14:48.367Z,9.81
2023-01-13T05:20:40.746Z,9.81
2023-01-13T05:26:34.632Z,9.81
2023-01-13T05:32:28.311Z,9.83
2023-01-13T05:38:21.040Z,9.84
2023-01-13T05:44:14.767Z,9.83
2023-01-13T05:50:08.481Z,9.87
2023-01-13T05:56:05.329Z,9.92
2023-01-13T06:01:57.204Z,9.92
2023-01-13T06:07:49.903Z,9.91
2023-01-13T06:13:43.285Z,9.92
2023-01-13T06:19:36.289Z,9.93
2023-01-13T06:25:28.963Z,9.96
2023-01-13T06:31:22.330Z,9.94
2023-01-13T06:37:20.152Z,9.96
2023-01-13T06:43:16.684Z,10.08
2023-01-13T06:49:10.996Z,10.09
2023-01-13T06:55:04.402Z,10.14
2023-01-13T07:01:00.130Z,10.19
2023-01-13T07:06:53.119Z,10.19
2023-01-13T07:13:05.697Z,10.24
2023-01-13T07:19:00.120Z,10.29
2023-01-13T07:24:53.132Z,10.29
2023-01-13T07:30:45.957Z,10.35
2023-01-13T07:36:39.435Z,10.38
2023-01-13T07:42:50.865Z,10.49
2023-01-13T07:48:43.131Z,10.52
2023-01-13T07:54:40.914Z,10.66
2023-01-13T08:00:34.225Z,10.80
2023-01-13T08:06:27.501Z,10.87
2023-01-13T08:12:38.298Z,11.00
2023-01-13T08:18:33.332Z,11.22
2023-01-13T08:24:26.328Z,11.39
2023-01-13T08:30:26.221Z,11.52
2023-01-13T08:36:19.219Z,11.80
2023-01-13T08:42:12.334Z,11.91
2023-01-13T08:48:05.760Z,11.89
2023-01-13T08:54:00.205Z,11.99
2023-01-13T08:59:53.309Z,12.01
2023-01-13T09:05:47.262Z,12.12
2023-01-13T09:12:02.108Z,12.20
2023-01-13T09:17:55.582Z,12.25
2023-01-13T09:23:48.589Z,12.21
2023-01-13T09:29:42.029Z,12.19
2023-01-13T09:35:36.733Z,12.05
2023-01-13T09:41:49.968Z,12.00
2023-01-13T09:47:56.153Z,11.94
2023-01-13T09:54:00.869Z,11.70
2023-01-13T09:59:53.206Z,11.41
2023-01-13T10:05:56.666Z,11.59
2023-01-13T10:12:09.536Z,11.95
2023-01-13T10:18:12.449Z,12.30
2023-01-13T10:24:27.530Z,12.96
2023-01-13T10:30:24.338Z,13.56
2023-01-13T10:36:21.718Z,13.95
2023-01-13T10:42:22.340Z,14.31
2023-01-13T10:48:15.282Z,14.23
2023-01-13T10:54:13.268Z,14.10
2023-01-13T11:00:06.336Z,13.70
2023-01-13T11:06:00.556Z,13.72
2023-01-13T11:11:57.061Z,13.57
2023-01-13T11:18:01.649Z,13.54
2023-01-13T11:24:11.631Z,13.95
2023-01-13T11:30:21.008Z,14.21
2023-01-13T11:36:23.749Z,14.43
2023-01-13T11:42:25.611Z,14.28
2023-01-13T11:48:23.050Z,14.15
2023-01-13T11:54:47.424Z,14.11
2023-01-13T12:01:00.903Z,13.72
2023-01-13T12:07:22.987Z,13.55
2023-01-13T12:13:30.889Z,13.40
2023-01-13T12:19:30.250Z,13.35
2023-01-13T12:25:37.690Z,13.31
2023-01-13T12:31:32.254Z,13.39
2023-01-13T12:37:50.349Z,13.51
2023-01-13T12:44:07.298Z,13.82
2023-01-13T12:50:25.017Z,13.80
2023-01-13T12:56:40.299Z,13.58
2023-01-13T13:02:39.488Z,13.40
2023-01-13T13:08:56.514Z,13.49
2023-01-13T13:14:49.035Z,13.51
2023-01-13T13:21:09.025Z,13.48
2023-01-13T13:28:06.112Z,13.22
2023-01-13T13:34:17.649Z,12.98
2023-01-13T13:40:30.414Z,12.80
2023-01-13T13:46:47.569Z,12.68
2023-01-13T13:53:03.017Z,12.69
2023-01-13T13:58:56.648Z,12.58
2023-01-13T14:04:51.261Z,12.46
2023-01-13T14:10:46.545Z,12.43
2023-01-13T14:16:40.767Z,12.35
2023-01-13T14:22:33.331Z,12.29
2023-01-13T14:28:32.642Z,12.17
2023-01-13T14:34:31.720Z,12.12
2023-01-13T14:40:37.281Z,12.01
2023-01-13T14:46:43.347Z,11.84
2023-01-13T14:52:58.367Z,11.67
2023-01-13T14:58:51.864Z,11.15
2023-01-13T15:04:44.184Z,10.85
2023-01-13T15:10:55.675Z,10.69
2023-01-13T15:16:48.644Z,10.57
2023-01-13T15:22:42.547Z,10.42
2023-01-13T15:28:34.985Z,10.30
2023-01-13T15:34:27.584Z,10.18
2023-01-13T15:40:31.131Z,10.12
2023-01-13T15:46:43.584Z,10.10
2023-01-13T15:52:36.027Z,9.97
2023-01-13T15:58:30.855Z,9.81
2023-01-13T16:04:23.361Z,9.65
2023-01-13T16:10:26.203Z,9.52
2023-01-13T16:16:24.842Z,9.41
2023-01-13T16:22:18.289Z,9.34
2023-01-13T16:28:23.033Z,9.22
2023-01-13T16:34:15.426Z,9.15
2023-01-13T16:40:21.733Z,8.99
2023-01-13T16:46:21.645Z,8.83
2023-01-13T16:52:14.672Z,8.74
2023-01-13T16:58:20.974Z,8.61
2023-01-13T17:04:20.298Z,8.55
2023-01-13T17:10:23.030Z,8.49
2023-01-13T17:16:26.454Z,8.40
2023-01-13T17:22:23.295Z,8.31
2023-01-13T17:28:15.757Z,8.23
2023-01-13T17:34:11.020Z,8.18
2023-01-13T17:40:05.804Z,8.13
2023-01-13T17:46:00.489Z,8.04
2023-01-13T17:51:55.443Z,7.86
2023-01-13T17:57:47.962Z,7.65
2023-01-13T18:03:41.779Z,7.47
2023-01-13T18:09:34.755Z,7.36
2023-01-13T18:15:27.914Z,7.34
2023-01-13T18:21:42.415Z,7.35
2023-01-13T18:27:38.655Z,7.33
2023-01-13T18:33:30.762Z,7.31
2023-01-13T18:39:23.838Z,7.26
2023-01-13T18:45:29.410Z,7.37
2023-01-13T18:51:21.910Z,7.35
2023-01-13T18:57:16.453Z,7.24
2023-01-13T19:09:11.190Z,7.11
2023-01-13T19:15:04.785Z,7.07
2023-01-13T19:21:01.752Z,7.14
2023-01-13T19:26:55.046Z,7.33
2023-01-13T19:32:47.859Z,7.54
2023-01-13T19:38:40.878Z,7.48
2023-01-13T19:44:52.714Z,7.27
2023-01-13T19:50:45.511Z,7.06
2023-01-13T19:56:39.124Z,6.91
2023-01-13T20:02:32.748Z,6.78
2023-01-13T20:08:27.223Z,6.65
2023-01-13T20:14:21.566Z,6.53
2023-01-13T20:20:16.064Z,6.46
2023-01-13T20:26:09.165Z,6.37
2023-01-13T20:32:02.271Z,6.39
2023-01-13T20:37:55.084Z,6.35
2023-01-13T20:43:50.197Z,6.30
2023-01-13T20:49:44.295Z,6.18
2023-01-13T20:55:40.043Z,6.03
2023-01-13T21:01:32.544Z,5.90
2023-01-13T21:07:25.653Z,5.71
2023-01-13T21:13:37.078Z,5.59
2023-01-13T21:19:30.347Z,5.47
2023-01-13T21:25:23.306Z,5.30
2023-01-13T21:31:17.616Z,5.26
2023-01-13T21:37:13.567Z,5.20
2023-01-13T21:43:31.815Z,5.06
2023-01-13T21:49:24.897Z,4.98
2023-01-13T21:55:20.589Z,4.93
2023-01-13T22:01:13.397Z,4.85
2023-01-13T22:07:06.864Z,4.82
2023-01-13T22:13:21.436Z,4.83
2023-01-13T22:19:14.295Z,4.86
2023-01-13T22:25:09.212Z,4.85
2023-01-13T22:31:02.360Z,5.06
2023-01-13T22:36:55.438Z,5.54
2023-01-13T22:42:48.396Z,5.84
2023-01-13T22:48:41.751Z,6.07
2023-01-13T22:54:34.400Z,6.30
2023-01-13T23:00:27.638Z,6.55
2023-01-13T23:06:22.114Z,6.72
2023-01-13T23:12:14.097Z,6.75
2023-01-13T23:18:06.597Z,6.54
2023-01-13T23:23:59.587Z,6.25
2023-01-13T23:29:54.735Z,5.96
2023-01-13T23:35:59.579Z,5.76
2023-01-13T23:41:52.522Z,5.60
2023-01-13T23:47:46.521Z,5.47
2023-01-13T23:53:41.063Z,5.33
2023-01-13T23:59:33.567Z,5.19
